Time,TemperatureF,DewpointF,PressureIn,WindDirection,WindDirectionDegrees,WindSpeedMPH,WindSpeedGustMPH,Humidity,HourlyPrecipIn,Conditions,Clouds,dailyrainin,SolarRadiationWatts/m^2,SoftwareType,DateUTC
2013-07-03 00:00:00,70.2,67.7,30.00,North,8,0.0,0.0,92,0.00,-RA,BKN,0.04,0.0,WeatherDisplay:10.37,2013-07-03 04:00:00,
2013-07-03 00:01:00,70.2,67.7,30.00,North,8,0.0,0.0,92,0.00,-RA,BKN,0.00,0.0,WeatherDisplay:10.37,2013-07-03 04:01:00,
2013-07-03 00:03:00,70.0,67.5,30.00,North,8,0.0,0.0,92,0.00,RA,BKN,0.00,0.0,WeatherDisplay:10.37,2013-07-03 04:03:00,
2013-07-03 00:04:00,70.0,67.5,30.00,North,8,0.0,0.0,92,0.00,RA,BKN,0.00,0.0,WeatherDisplay:10.37,2013-07-03 04:04:00,
2013-07-03 00:09:00,70.2,67.7,29.99,North,8,0.0,0.0,92,0.00,RA,BKN,0.00,0.0,WeatherDisplay:10.37,2013-07-03 04:09:00,
2013-07-03 00:14:00,70.2,67.7,29.99,North,8,0.0,0.0,92,0.00,BKN,,0.00,0.0,WeatherDisplay:10.37,2013-07-03 04:14:00,
2013-07-03 00:19:00,70.0,67.5,29.99,NE,39,0.0,0.0,92,0.00,BKN,,0.00,0.0,WeatherDisplay:10.37,2013-07-03 04:19:00,
2013-07-03 00:24:00,70.0,67.5,29.99,SE,141,0.5,1.1,92,0.00,BKN,,0.00,0.0,WeatherDisplay:10.37,2013-07-03 04:24:00,
2013-07-03 00:29:00,69.8,67.4,29.99,SE,138,0.0,0.0,92,0.00,BKN,,0.00,0.0,WeatherDisplay:10.37,2013-07-03 04:29:00,
2013-07-03 00:31:00,69.8,67.7,29.99,SE,127,0.4,1.1,93,0.00,BKN,,0.00,0.0,WeatherDisplay:10.37,2013-07-03 04:31:00,
2013-07-03 00:32:00,69.8,67.7,29.99,SE,130,0.6,2.3,93,0.00,BKN,,0.00,0.0,WeatherDisplay:10.37,2013-07-03 04:32:00,
2013-07-03 00:37:00,69.6,67.5,29.99,SE,140,0.1,1.1,93,0.00,BKN,,0.00,0.0,WeatherDisplay:10.37,2013-07-03 04:37:00,
2013-07-03 00:42:00,69.6,67.5,29.99,SSE,148,0.1,1.1,93,0.00,BKN,,0.00,0.0,WeatherDisplay:10.37,2013-07-03 04:42:00,
2013-07-03 00:46:00,69.6,67.5,29.99,SSE,148,0.7,3.2,93,0.00,BKN,,0.00,0.0,WeatherDisplay:10.37,2013-07-03 04:46:00,
2013-07-03 00:51:00,69.6,67.8,29.99,SE,126,0.8,2.3,94,0.00,BKN,,0.00,0.0,WeatherDisplay:10.37,2013-07-03 04:51:00,
2013-07-03 00:53:00,69.6,67.8,29.99,SE,143,0.8,2.3,94,0.00,BKN,,0.00,0.0,WeatherDisplay:10.37,2013-07-03 04:53:00,
2013-07-03 00:58:00,69.4,67.6,29.99,SE,140,1.2,2.3,94,0.00,BKN,,0.00,0.0,WeatherDisplay:10.37,2013-07-03 04:58:00,
2013-07-03 01:03:00,69.4,67.6,29.99,ESE,112,0.0,1.1,94,0.00,OVC,BKN,0.00,0.0,WeatherDisplay:10.37,2013-07-03 05:03:00,
2013-07-03 01:07:00,69.4,67.6,29.99,ESE,120,0.3,1.1,94,0.00,OVC,BKN,0.00,0.0,WeatherDisplay:10.37,2013-07-03 05:07:00,
2013-07-03 01:12:00,69.4,67.6,29.99,SE,135,0.4,2.3,94,0.00,OVC,BKN,0.00,0.0,WeatherDisplay:10.37,2013-07-03 05:12:00,
2013-07-03 01:17:00,69.4,67.9,29.99,SE,135,0.3,1.1,95,0.00,OVC,BKN,0.00,0.0,WeatherDisplay:10.37,2013-07-03 05:17:00,
2013-07-03 01:19:00,69.4,67.9,29.99,ESE,121,0.5,3.5,95,0.00,OVC,BKN,0.00,0.0,WeatherDisplay:10.37,2013-07-03 05:19:00,
2013-07-03 01:24:00,69.4,67.9,29.99,SE,127,0.0,0.9,95,0.00,OVC,BKN,0.00,0.0,WeatherDisplay:10.37,2013-07-03 05:24:00,
2013-07-03 01:29:00,69.4,67.6,29.99,SE,139,0.0,0.0,94,0.00,OVC,BKN,0.00,0.0,WeatherDisplay:10.37,2013-07-03 05:29:00,
2013-07-03 01:34:00,69.4,67.9,29.99,SE,139,0.0,0.0,95,0.00,OVC,BKN,0.00,0.0,WeatherDisplay:10.37,2013-07-03 05:34:00,
2013-07-03 01:39:00,69.4,67.6,29.99,SSE,150,0.0,1.1,94,0.00,OVC,BKN,0.00,0.0,WeatherDisplay:10.37,2013-07-03 05:39:00,
2013-07-03 01:45:00,69.3,67.5,30.00,SE,138,0.2,2.3,94,0.00,OVC,BKN,0.00,0.0,WeatherDisplay:10.37,2013-07-03 05:45:00,
2013-07-03 01:50:00,69.1,67.3,29.99,SE,141,0.2,1.4,94,0.00,OVC,BKN,0.00,0.0,WeatherDisplay:10.37,2013-07-03 05:50:00,
2013-07-03 01:54:00,69.1,67.6,30.00,SE,125,0.7,2.3,95,0.00,OVC,BKN,0.00,0.0,WeatherDisplay:10.37,2013-07-03 05:54:00,
2013-07-03 01:57:00,69.1,67.6,29.99,SE,137,0.2,2.3,95,0.00,OVC,BKN,0.00,0.0,WeatherDisplay:10.37,2013-07-03 05:57:00,
2013-07-03 01:58:00,69.3,67.8,30.00,SE,139,0.2,1.1,95,0.00,OVC,BKN,0.00,0.0,WeatherDisplay:10.37,2013-07-03 05:58:00,
2013-07-03 02:02:00,69.1,67.6,29.99,SE,132,0.5,2.3,95,0.00,FEW,BKN,0.00,0.0,WeatherDisplay:10.37,2013-07-03 06:02:00,
2013-07-03 02:07:00,69.1,67.6,29.99,SSE,151,0.0,0.0,95,0.00,FEW,BKN,0.00,0.0,WeatherDisplay:10.37,2013-07-03 06:07:00,
2013-07-03 02:12:00,69.1,67.6,29.99,SE,144,0.7,1.4,95,0.00,FEW,BKN,0.00,0.0,WeatherDisplay:10.37,2013-07-03 06:12:00,
2013-07-03 02:13:00,69.1,67.6,29.99,SE,139,0.8,2.3,95,0.00,FEW,BKN,0.00,0.0,WeatherDisplay:10.37,2013-07-03 06:13:00,
2013-07-03 02:17:00,69.1,67.6,29.99,SE,143,0.5,1.1,95,0.00,FEW,BKN,0.00,0.0,WeatherDisplay:10.37,2013-07-03 06:17:00,
2013-07-03 02:18:00,68.9,67.4,29.99,SE,135,0.3,1.1,95,0.00,FEW,BKN,0.00,0.0,WeatherDisplay:10.37,2013-07-03 06:18:00,
2013-07-03 02:22:00,68.9,67.4,29.99,SE,144,0.3,1.5,95,0.00,FEW,BKN,0.00,0.0,WeatherDisplay:10.37,2013-07-03 06:22:00,
2013-07-03 02:24:00,68.7,67.2,29.99,SE,145,1.2,2.3,95,0.00,FEW,BKN,0.00,0.0,WeatherDisplay:10.37,2013-07-03 06:24:00,
2013-07-03 02:26:00,68.7,67.2,29.99,SE,134,0.7,1.1,95,0.00,FEW,BKN,0.00,0.0,WeatherDisplay:10.37,2013-07-03 06:26:00,
2013-07-03 02:31:00,68.7,67.2,29.99,SE,138,0.4,1.1,95,0.00,FEW,BKN,0.00,0.0,WeatherDisplay:10.37,2013-07-03 06:31:00,
2013-07-03 02:33:00,68.7,67.2,29.99,SE,140,0.3,1.1,95,0.00,FEW,BKN,0.00,0.0,WeatherDisplay:10.37,2013-07-03 06:33:00,
2013-07-03 02:38:00,68.9,67.4,29.99,SE,142,0.0,0.0,95,0.00,FEW,BKN,0.00,0.0,WeatherDisplay:10.37,2013-07-03 06:38:00,
2013-07-03 02:43:00,68.9,67.4,29.99,SE,142,0.0,0.0,95,0.00,FEW,BKN,0.00,0.0,WeatherDisplay:10.37,2013-07-03 06:43:00,
2013-07-03 02:46:00,68.7,67.2,29.99,SE,142,0.0,0.0,95,0.00,FEW,BKN,0.00,0.0,WeatherDisplay:10.37,2013-07-03 06:46:00,
2013-07-03 02:51:00,68.7,67.2,29.99,SE,140,0.0,1.1,95,0.01,RA,BKN,0.01,0.0,WeatherDisplay:10.37,2013-07-03 06:51:00,
2013-07-03 02:55:00,68.7,67.2,29.99,SE,140,0.0,1.1,95,0.01,RA,BKN,0.01,0.0,WeatherDisplay:10.37,2013-07-03 06:55:00,
2013-07-03 03:00:00,68.7,67.2,29.99,SE,140,0.0,0.0,95,0.01,RA,BKN,0.01,0.0,WeatherDisplay:10.37,2013-07-03 07:00:00,
2013-07-03 03:05:00,68.5,67.1,29.99,SE,140,0.0,0.0,95,0.01,FEW,BKN,0.01,0.0,WeatherDisplay:10.37,2013-07-03 07:05:00,
2013-07-03 03:11:00,68.5,67.1,29.99,SE,140,0.0,0.0,95,0.01,FEW,BKN,0.01,0.0,WeatherDisplay:10.37,2013-07-03 07:11:00,
2013-07-03 03:16:00,68.4,66.9,29.99,SE,140,0.1,1.1,95,0.01,FEW,BKN,0.01,0.0,WeatherDisplay:10.37,2013-07-03 07:16:00,
2013-07-03 03:21:00,68.5,67.1,29.99,SE,140,0.0,1.1,95,0.01,FEW,BKN,0.01,0.0,WeatherDisplay:10.37,2013-07-03 07:21:00,
2013-07-03 03:26:00,68.5,67.1,29.99,SE,140,0.0,0.0,95,0.01,FEW,BKN,0.01,0.0,WeatherDisplay:10.37,2013-07-03 07:26:00,
2013-07-03 03:31:00,68.4,66.9,29.99,SE,139,0.3,2.3,95,0.01,FEW,BKN,0.01,0.0,WeatherDisplay:10.37,2013-07-03 07:31:00,
2013-07-03 03:37:00,68.2,66.7,29.99,SSE,150,0.6,2.3,95,0.01,FEW,BKN,0.01,0.0,WeatherDisplay:10.37,2013-07-03 07:37:00,
2013-07-03 03:39:00,68.2,66.7,29.99,ESE,120,0.8,1.1,95,0.01,FEW,BKN,0.01,0.0,WeatherDisplay:10.37,2013-07-03 07:39:00,
2013-07-03 03:44:00,68.2,67.0,29.99,SE,145,0.1,1.1,96,0.01,FEW,BKN,0.01,0.0,WeatherDisplay:10.37,2013-07-03 07:44:00,
2013-07-03 03:50:00,68.2,67.0,29.99,SE,144,0.2,1.1,96,0.00,FEW,BKN,0.01,0.0,WeatherDisplay:10.37,2013-07-03 07:50:00,
2013-07-03 03:55:00,68.2,67.0,29.99,SE,129,0.6,2.3,96,0.00,FEW,BKN,0.01,0.0,WeatherDisplay:10.37,2013-07-03 07:55:00,
2013-07-03 04:01:00,68.2,67.0,29.99,SE,145,0.1,1.1,96,0.00,FEW,BKN,0.01,0.0,WeatherDisplay:10.37,2013-07-03 08:01:00,
2013-07-03 04:06:00,68.2,67.0,29.99,SE,140,0.2,1.1,96,0.00,FEW,BKN,0.01,0.0,WeatherDisplay:10.37,2013-07-03 08:06:00,
2013-07-03 04:09:00,68.0,66.5,29.99,SE,140,0.0,1.1,95,0.00,FEW,BKN,0.01,0.0,WeatherDisplay:10.37,2013-07-03 08:09:00,
2013-07-03 04:14:00,67.8,66.6,29.99,SE,124,0.6,2.3,96,0.00,FEW,BKN,0.01,0.0,WeatherDisplay:10.37,2013-07-03 08:14:00,
2013-07-03 04:18:00,67.8,66.6,29.99,SE,138,0.1,1.1,96,0.00,FEW,BKN,0.01,0.0,WeatherDisplay:10.37,2013-07-03 08:18:00,
2013-07-03 04:23:00,67.8,66.6,29.99,SE,129,0.4,2.3,96,0.00,FEW,BKN,0.01,0.0,WeatherDisplay:10.37,2013-07-03 08:23:00,
2013-07-03 04:29:00,67.8,66.6,30.00,SE,130,0.0,1.1,96,0.00,FEW,BKN,0.01,0.0,WeatherDisplay:10.37,2013-07-03 08:29:00,
2013-07-03 04:34:00,67.8,66.6,30.00,SE,130,0.0,0.0,96,0.00,SCT,BKN,0.01,0.0,WeatherDisplay:10.37,2013-07-03 08:34:00,
2013-07-03 04:39:00,67.8,66.6,30.00,SE,124,0.1,1.1,96,0.00,SCT,BKN,0.01,0.0,WeatherDisplay:10.37,2013-07-03 08:39:00,
2013-07-03 04:40:00,67.8,66.6,30.00,SE,135,0.3,1.1,96,0.00,SCT,BKN,0.01,0.0,WeatherDisplay:10.37,2013-07-03 08:40:00,
2013-07-03 04:45:00,67.8,66.6,30.00,SSE,158,0.0,0.0,96,0.00,SCT,BKN,0.01,0.0,WeatherDisplay:10.37,2013-07-03 08:45:00,
2013-07-03 04:50:00,67.8,66.6,30.00,SE,136,1.0,2.4,96,0.00,SCT,BKN,0.01,0.0,WeatherDisplay:10.37,2013-07-03 08:50:00,
2013-07-03 04:54:00,67.6,66.8,30.00,SE,133,1.3,3.5,97,0.00,SCT,BKN,0.01,0.0,WeatherDisplay:10.37,2013-07-03 08:54:00,
2013-07-03 04:56:00,67.8,66.9,30.00,SE,130,1.0,3.5,97,0.00,SCT,BKN,0.01,0.0,WeatherDisplay:10.37,2013-07-03 08:56:00,
2013-07-03 05:01:00,67.8,66.9,30.00,SSE,156,0.8,2.3,97,0.00,SCT,BKN,0.01,0.0,WeatherDisplay:10.37,2013-07-03 09:01:00,
2013-07-03 05:06:00,67.8,66.6,30.00,SE,137,0.2,0.0,96,0.00,SCT,BKN,0.01,0.0,WeatherDisplay:10.37,2013-07-03 09:06:00,
2013-07-03 05:11:00,68.0,66.8,30.00,SE,137,0.0,0.0,96,0.00,SCT,BKN,0.01,0.0,WeatherDisplay:10.37,2013-07-03 09:11:00,
2013-07-03 05:16:00,68.0,66.8,30.00,SE,137,0.0,0.0,96,0.00,SCT,BKN,0.01,0.0,WeatherDisplay:10.37,2013-07-03 09:16:00,
2013-07-03 05:21:00,67.8,66.6,30.00,SE,133,0.4,1.4,96,0.00,SCT,BKN,0.01,0.0,WeatherDisplay:10.37,2013-07-03 09:21:00,
2013-07-03 05:27:00,67.8,66.6,30.00,SE,137,0.0,1.1,96,0.00,SCT,BKN,0.01,0.0,WeatherDisplay:10.37,2013-07-03 09:27:00,
2013-07-03 05:32:00,68.0,66.8,30.00,SE,137,0.0,0.0,96,0.00,SCT,BKN,0.01,0.0,WeatherDisplay:10.37,2013-07-03 09:32:00,
2013-07-03 05:37:00,68.0,66.8,30.00,SE,137,0.0,0.0,96,0.00,SCT,BKN,0.01,0.0,WeatherDisplay:10.37,2013-07-03 09:37:00,
2013-07-03 05:41:00,68.0,66.8,30.00,SE,137,0.0,0.0,96,0.00,SCT,BKN,0.01,0.0,WeatherDisplay:10.37,2013-07-03 09:41:00,
2013-07-03 05:46:00,68.0,66.8,30.00,SE,137,0.0,0.0,96,0.00,SCT,BKN,0.01,0.0,WeatherDisplay:10.37,2013-07-03 09:46:00,
2013-07-03 05:49:00,67.8,66.6,30.00,SE,137,0.1,0.9,96,0.00,SCT,BKN,0.01,0.0,WeatherDisplay:10.37,2013-07-03 09:49:00,
2013-07-03 05:50:00,67.8,66.6,30.00,SSE,148,0.6,2.3,96,0.00,SCT,BKN,0.01,0.0,WeatherDisplay:10.37,2013-07-03 09:50:00,
2013-07-03 05:55:00,67.8,66.6,30.01,SE,127,0.1,1.4,96,0.00,SCT,BKN,0.01,0.0,WeatherDisplay:10.37,2013-07-03 09:55:00,
2013-07-03 06:00:00,67.8,66.6,30.02,SE,140,0.1,1.1,96,0.00,SCT,BKN,0.01,0.0,WeatherDisplay:10.37,2013-07-03 10:00:00,
2013-07-03 06:04:00,67.8,66.6,30.02,SE,140,0.3,1.1,96,0.00,SCT,BKN,0.01,0.0,WeatherDisplay:10.37,2013-07-03 10:04:00,
2013-07-03 06:05:00,67.8,66.6,30.02,SE,139,0.3,2.3,96,0.00,SCT,BKN,0.01,0.0,WeatherDisplay:10.37,2013-07-03 10:05:00,
2013-07-03 06:10:00,67.8,66.6,30.02,SE,139,0.2,1.1,96,0.00,SCT,BKN,0.01,0.0,WeatherDisplay:10.37,2013-07-03 10:10:00,
2013-07-03 06:15:00,68.0,66.8,30.02,ESE,122,0.0,0.0,96,0.00,SCT,BKN,0.01,0.0,WeatherDisplay:10.37,2013-07-03 10:15:00,
2013-07-03 06:21:00,68.0,67.1,30.02,ESE,122,0.0,0.0,97,0.00,SCT,BKN,0.01,0.0,WeatherDisplay:10.37,2013-07-03 10:21:00,
2013-07-03 06:26:00,68.0,67.1,30.02,SE,139,0.4,1.1,97,0.00,SCT,BKN,0.01,0.0,WeatherDisplay:10.37,2013-07-03 10:26:00,
2013-07-03 06:31:00,68.0,67.1,30.02,SE,138,0.8,1.4,97,0.00,SCT,BKN,0.01,0.0,WeatherDisplay:10.37,2013-07-03 10:31:00,
2013-07-03 06:32:00,68.2,67.3,30.02,SE,138,0.3,1.1,97,0.00,SCT,BKN,0.01,0.0,WeatherDisplay:10.37,2013-07-03 10:32:00,
2013-07-03 06:37:00,68.4,67.5,30.02,SE,137,0.1,0.0,97,0.00,SCT,BKN,0.01,0.8,WeatherDisplay:10.37,2013-07-03 10:37:00,
2013-07-03 06:43:00,68.5,67.7,30.02,SE,128,0.0,0.0,97,0.00,SCT,BKN,0.01,2.0,WeatherDisplay:10.37,2013-07-03 10:43:00,
2013-07-03 06:48:00,68.7,67.5,30.02,SE,128,0.0,0.0,96,0.00,SCT,BKN,0.01,4.3,WeatherDisplay:10.37,2013-07-03 10:48:00,
2013-07-03 06:49:00,68.7,67.5,30.02,SE,128,0.0,0.0,96,0.00,SCT,BKN,0.01,4.7,WeatherDisplay:10.37,2013-07-03 10:49:00,
2013-07-03 06:54:00,68.9,68.0,30.02,SE,128,0.0,0.0,97,0.00,SCT,BKN,0.01,7.4,WeatherDisplay:10.37,2013-07-03 10:54:00,
2013-07-03 06:55:00,68.9,68.0,30.02,SE,128,0.0,0.0,97,0.00,SCT,BKN,0.01,7.4,WeatherDisplay:10.37,2013-07-03 10:55:00,
2013-07-03 06:57:00,69.1,68.2,30.02,SE,128,0.0,0.0,97,0.00,SCT,BKN,0.01,8.5,WeatherDisplay:10.37,2013-07-03 10:57:00,
2013-07-03 07:02:00,69.3,68.4,30.03,SE,129,0.0,1.1,97,0.00,SCT,BKN,0.01,12.5,WeatherDisplay:10.37,2013-07-03 11:02:00,
2013-07-03 07:07:00,69.4,68.6,30.03,SE,130,0.5,1.1,97,0.00,SCT,BKN,0.01,17.2,WeatherDisplay:10.37,2013-07-03 11:07:00,
2013-07-03 07:08:00,69.4,68.6,30.03,SE,141,0.5,1.1,97,0.00,SCT,BKN,0.01,17.6,WeatherDisplay:10.37,2013-07-03 11:08:00,
2013-07-03 07:09:00,69.4,68.6,30.03,SE,139,0.6,1.1,97,0.00,SCT,BKN,0.01,18.8,WeatherDisplay:10.37,2013-07-03 11:09:00,
2013-07-03 07:14:00,69.6,68.7,30.03,SE,134,0.0,1.1,97,0.00,SCT,BKN,0.01,23.4,WeatherDisplay:10.37,2013-07-03 11:14:00,
2013-07-03 07:19:00,70.2,69.3,30.03,SE,138,0.6,2.3,97,0.00,SCT,BKN,0.01,28.4,WeatherDisplay:10.37,2013-07-03 11:19:00,
2013-07-03 07:24:00,70.3,69.4,30.03,ESE,107,0.2,1.1,97,0.00,SCT,BKN,0.01,28.4,WeatherDisplay:10.37,2013-07-03 11:24:00,
2013-07-03 07:25:00,70.5,69.6,30.03,SE,139,0.1,1.1,97,0.00,SCT,BKN,0.01,29.6,WeatherDisplay:10.37,2013-07-03 11:25:00,
2013-07-03 07:30:00,70.9,70.0,30.03,SE,139,0.1,1.1,97,0.00,SCT,BKN,0.01,32.9,WeatherDisplay:10.37,2013-07-03 11:30:00,
2013-07-03 07:36:00,71.2,70.3,30.03,ESE,121,0.0,1.1,97,0.00,SCT,BKN,0.01,37.9,WeatherDisplay:10.37,2013-07-03 11:36:00,
2013-07-03 07:41:00,71.4,70.5,30.03,SE,130,0.1,2.3,97,0.00,SCT,BKN,0.01,37.9,WeatherDisplay:10.37,2013-07-03 11:41:00,
2013-07-03 07:45:00,71.4,70.5,30.03,SE,144,0.1,1.1,97,0.00,SCT,BKN,0.01,39.5,WeatherDisplay:10.37,2013-07-03 11:45:00,
2013-07-03 07:50:00,71.8,70.9,30.04,SE,140,0.3,1.1,97,0.00,SCT,BKN,0.01,53.8,WeatherDisplay:10.37,2013-07-03 11:50:00,
2013-07-03 07:55:00,72.0,71.1,30.04,SE,142,0.1,1.1,97,0.00,SCT,BKN,0.01,66.5,WeatherDisplay:10.37,2013-07-03 11:55:00,
2013-07-03 08:00:00,72.1,71.2,30.04,SE,135,0.9,0.9,97,0.00,SCT,BKN,0.01,73.7,WeatherDisplay:10.37,2013-07-03 12:00:00,
2013-07-03 08:02:00,72.3,71.1,30.04,SE,130,0.0,0.0,96,0.00,BKN,,0.01,74.1,WeatherDisplay:10.37,2013-07-03 12:02:00,
2013-07-03 08:08:00,72.7,71.5,30.04,SE,139,0.0,0.0,96,0.00,BKN,,0.01,88.0,WeatherDisplay:10.37,2013-07-03 12:08:00,
2013-07-03 08:12:00,73.0,71.8,30.04,SE,139,0.2,1.1,96,0.00,BKN,,0.01,77.8,WeatherDisplay:10.37,2013-07-03 12:12:00,
2013-07-03 08:17:00,73.2,72.0,30.04,South,186,0.0,0.0,96,0.00,BKN,,0.01,80.4,WeatherDisplay:10.37,2013-07-03 12:17:00,
2013-07-03 08:21:00,73.6,72.4,30.04,South,189,0.0,0.0,96,0.00,BKN,,0.01,243.5,WeatherDisplay:10.37,2013-07-03 12:21:00,
2013-07-03 08:26:00,74.1,72.9,30.04,South,186,0.1,1.1,96,0.00,BKN,,0.01,248.9,WeatherDisplay:10.37,2013-07-03 12:26:00,
2013-07-03 08:31:00,75.0,73.8,30.04,SSE,165,0.0,0.0,96,0.00,BKN,,0.01,284.2,WeatherDisplay:10.37,2013-07-03 12:31:00,
2013-07-03 08:36:00,75.9,74.7,30.04,SE,131,0.0,0.0,96,0.00,BKN,,0.01,294.5,WeatherDisplay:10.37,2013-07-03 12:36:00,
2013-07-03 08:42:00,76.3,74.4,30.04,SSW,198,0.0,0.0,94,0.00,BKN,,0.01,184.4,WeatherDisplay:10.37,2013-07-03 12:42:00,
2013-07-03 08:47:00,76.6,74.1,30.05,SSW,200,0.6,1.1,92,0.00,BKN,,0.01,324.1,WeatherDisplay:10.37,2013-07-03 12:47:00,
2013-07-03 08:48:00,76.6,74.1,30.04,SSW,200,0.1,1.1,92,0.00,BKN,,0.01,318.9,WeatherDisplay:10.37,2013-07-03 12:48:00,
2013-07-03 08:53:00,77.2,74.0,30.04,South,185,0.4,1.1,90,0.00,BKN,,0.01,151.1,WeatherDisplay:10.37,2013-07-03 12:53:00,
2013-07-03 08:58:00,77.4,73.5,30.05,South,187,1.1,3.5,88,0.00,BKN,,0.01,293.4,WeatherDisplay:10.37,2013-07-03 12:58:00,
2013-07-03 09:03:00,77.5,73.0,30.05,South,183,0.8,4.6,86,0.00,BKN,,0.01,210.7,WeatherDisplay:10.37,2013-07-03 13:03:00,
2013-07-03 09:09:00,77.7,72.8,30.05,SSE,166,2.5,5.8,85,0.00,BKN,,0.01,240.1,WeatherDisplay:10.37,2013-07-03 13:09:00,
2013-07-03 09:14:00,78.1,73.2,30.05,South,186,1.5,3.5,85,0.00,BKN,,0.01,303.9,WeatherDisplay:10.37,2013-07-03 13:14:00,
2013-07-03 09:19:00,78.8,73.6,30.05,South,174,0.8,2.3,84,0.00,BKN,,0.01,384.2,WeatherDisplay:10.37,2013-07-03 13:19:00,
2013-07-03 09:24:00,78.8,72.8,30.05,SSW,204,2.5,4.6,82,0.00,BKN,,0.01,425.9,WeatherDisplay:10.37,2013-07-03 13:24:00,
2013-07-03 09:25:00,79.0,73.0,30.05,South,180,1.9,4.6,82,0.00,BKN,,0.01,425.9,WeatherDisplay:10.37,2013-07-03 13:25:00,
2013-07-03 09:30:00,79.3,73.7,30.05,SSE,156,0.5,2.3,83,0.00,BKN,,0.01,432.7,WeatherDisplay:10.37,2013-07-03 13:30:00,
2013-07-03 09:35:00,79.9,73.2,30.05,South,186,3.3,6.9,80,0.00,BKN,,0.01,373.1,WeatherDisplay:10.37,2013-07-03 13:35:00,
2013-07-03 09:38:00,79.9,73.2,30.05,SSW,206,0.6,2.3,80,0.00,BKN,,0.01,420.1,WeatherDisplay:10.37,2013-07-03 13:38:00,
2013-07-03 09:43:00,80.4,72.9,30.05,SSW,192,0.5,4.6,78,0.00,BKN,,0.01,462.8,WeatherDisplay:10.37,2013-07-03 13:43:00,
2013-07-03 09:48:00,80.8,73.3,30.05,SW,217,0.5,2.3,78,0.00,BKN,,0.01,493.6,WeatherDisplay:10.37,2013-07-03 13:48:00,
2013-07-03 09:54:00,81.1,72.9,30.06,South,188,0.1,1.1,76,0.00,BKN,,0.01,492.2,WeatherDisplay:10.37,2013-07-03 13:54:00,
2013-07-03 09:59:00,81.7,73.4,30.06,South,189,1.5,4.6,76,0.00,BKN,,0.01,450.5,WeatherDisplay:10.37,2013-07-03 13:59:00,
2013-07-03 10:04:00,81.3,72.6,30.06,SSW,194,2.1,4.6,75,0.00,BKN,,0.01,526.8,WeatherDisplay:10.37,2013-07-03 14:04:00,
2013-07-03 10:07:00,81.3,73.0,30.06,SSW,192,0.3,2.3,76,0.00,BKN,,0.01,545.2,WeatherDisplay:10.37,2013-07-03 14:07:00,
2013-07-03 10:09:00,81.1,72.9,30.05,South,178,1.4,2.3,76,0.00,BKN,,0.01,542.2,WeatherDisplay:10.37,2013-07-03 14:09:00,
2013-07-03 10:14:00,81.1,72.5,30.06,South,189,1.4,2.3,75,0.00,BKN,,0.01,570.0,WeatherDisplay:10.37,2013-07-03 14:14:00,
2013-07-03 10:17:00,81.1,72.5,30.06,South,179,1.6,3.5,75,0.00,BKN,,0.01,618.4,WeatherDisplay:10.37,2013-07-03 14:17:00,
2013-07-03 10:22:00,81.3,72.2,30.06,South,179,0.4,2.3,74,0.00,BKN,,0.01,613.6,WeatherDisplay:10.37,2013-07-03 14:22:00,
2013-07-03 10:27:00,82.4,72.9,30.05,NW,323,0.6,2.3,73,0.00,BKN,,0.01,620.6,WeatherDisplay:10.37,2013-07-03 14:27:00,
2013-07-03 10:31:00,82.6,72.6,30.06,South,178,0.2,5.8,72,0.00,BKN,,0.01,575.3,WeatherDisplay:10.37,2013-07-03 14:31:00,
2013-07-03 10:36:00,83.5,73.5,30.06,NW,319,0.8,3.2,72,0.00,BKN,,0.01,645.7,WeatherDisplay:10.37,2013-07-03 14:36:00,
2013-07-03 10:38:00,83.7,72.8,30.06,West,268,2.5,5.8,70,0.00,BKN,,0.01,726.3,WeatherDisplay:10.37,2013-07-03 14:38:00,
2013-07-03 10:42:00,83.5,72.7,30.06,East,87,1.1,2.3,70,0.00,BKN,,0.01,586.8,WeatherDisplay:10.37,2013-07-03 14:42:00,
2013-07-03 10:47:00,83.7,73.3,30.06,South,179,0.0,0.0,71,0.00,BKN,,0.01,735.8,WeatherDisplay:10.37,2013-07-03 14:47:00,
2013-07-03 10:51:00,83.7,72.0,30.06,SSW,213,0.5,2.3,68,0.00,BKN,,0.01,651.5,WeatherDisplay:10.37,2013-07-03 14:51:00,
2013-07-03 10:56:00,83.5,72.2,30.06,South,176,1.9,4.6,69,0.00,BKN,,0.01,308.0,WeatherDisplay:10.37,2013-07-03 14:56:00,
2013-07-03 10:58:00,83.7,72.4,30.06,SSE,156,0.9,2.3,69,0.00,BKN,,0.01,629.7,WeatherDisplay:10.37,2013-07-03 14:58:00,
2013-07-03 11:03:00,84.2,72.5,30.06,South,184,0.8,1.4,68,0.00,BKN,,0.01,748.6,WeatherDisplay:10.37,2013-07-03 15:03:00,
2013-07-03 11:08:00,84.0,71.9,30.06,South,186,1.1,4.6,67,0.00,BKN,,0.01,857.9,WeatherDisplay:10.37,2013-07-03 15:08:00,
2013-07-03 11:13:00,84.6,73.3,30.05,South,181,0.1,1.1,69,0.00,BKN,,0.01,864.7,WeatherDisplay:10.37,2013-07-03 15:13:00,
2013-07-03 11:15:00,84.6,72.8,30.05,South,169,1.1,3.5,68,0.00,BKN,,0.01,877.0,WeatherDisplay:10.37,2013-07-03 15:15:00,
2013-07-03 11:20:00,84.4,71.8,30.05,SSW,205,1.6,4.6,66,0.00,BKN,,0.01,903.8,WeatherDisplay:10.37,2013-07-03 15:20:00,
2013-07-03 11:26:00,84.4,71.3,30.06,South,173,2.5,5.8,65,0.00,BKN,,0.01,327.4,WeatherDisplay:10.37,2013-07-03 15:26:00,
2013-07-03 11:29:00,84.0,71.9,30.05,South,178,0.0,0.0,67,0.00,BKN,,0.01,376.7,WeatherDisplay:10.37,2013-07-03 15:29:00,
2013-07-03 11:34:00,83.8,71.3,30.05,WSW,252,0.0,0.0,66,0.00,BKN,,0.01,375.9,WeatherDisplay:10.37,2013-07-03 15:34:00,
2013-07-03 11:39:00,84.0,71.9,30.05,South,181,0.1,0.0,67,0.00,BKN,,0.01,941.1,WeatherDisplay:10.37,2013-07-03 15:39:00,
2013-07-03 11:40:00,84.4,72.2,30.05,South,181,0.1,1.1,67,0.00,BKN,,0.01,860.7,WeatherDisplay:10.37,2013-07-03 15:40:00,
2013-07-03 11:45:00,85.1,72.0,30.05,WNW,296,1.9,4.3,65,0.00,BKN,,0.01,836.0,WeatherDisplay:10.37,2013-07-03 15:45:00,
2013-07-03 11:50:00,85.8,71.3,30.05,South,185,0.6,2.3,62,0.00,BKN,,0.01,713.9,WeatherDisplay:10.37,2013-07-03 15:50:00,
2013-07-03 11:52:00,85.8,70.8,30.05,South,187,1.7,3.5,61,0.00,BKN,,0.01,609.5,WeatherDisplay:10.37,2013-07-03 15:52:00,
2013-07-03 11:57:00,85.6,71.6,30.05,NNW,340,0.0,1.1,63,0.00,BKN,,0.01,718.5,WeatherDisplay:10.37,2013-07-03 15:57:00,
2013-07-03 12:02:00,86.0,70.5,30.05,SSW,202,1.7,4.6,60,0.00,BKN,,0.01,669.5,WeatherDisplay:10.37,2013-07-03 16:02:00,
2013-07-03 12:07:00,86.4,71.8,30.06,NW,326,0.3,0.8,62,0.00,BKN,,0.01,655.8,WeatherDisplay:10.37,2013-07-03 16:07:00,
2013-07-03 12:13:00,86.5,71.5,30.05,South,191,1.3,2.3,61,0.00,BKN,,0.01,896.4,WeatherDisplay:10.37,2013-07-03 16:13:00,
2013-07-03 12:18:00,87.1,72.5,30.05,SSE,149,0.3,1.1,62,0.00,BKN,,0.01,1032.5,WeatherDisplay:10.37,2013-07-03 16:18:00,
2013-07-03 12:24:00,87.4,70.8,30.05,South,181,0.4,1.4,58,0.00,BKN,,0.01,1162.2,WeatherDisplay:10.37,2013-07-03 16:24:00,
2013-07-03 12:29:00,87.6,73.0,30.05,SSW,209,0.4,3.5,62,0.00,BKN,,0.01,1228.2,WeatherDisplay:10.37,2013-07-03 16:29:00,
2013-07-03 12:34:00,87.8,71.2,30.04,SSW,194,2.5,6.9,58,0.00,BKN,,0.01,1195.4,WeatherDisplay:10.37,2013-07-03 16:34:00,
2013-07-03 12:39:00,88.3,71.7,30.04,West,261,0.6,2.3,58,0.00,BKN,,0.01,1026.4,WeatherDisplay:10.37,2013-07-03 16:39:00,
2013-07-03 12:44:00,88.0,71.3,30.04,South,184,0.0,0.0,58,0.00,BKN,,0.01,1214.0,WeatherDisplay:10.37,2013-07-03 16:44:00,
2013-07-03 12:50:00,88.0,71.3,30.04,SSW,194,0.6,2.3,58,0.00,BKN,,0.01,1169.0,WeatherDisplay:10.37,2013-07-03 16:50:00,
2013-07-03 12:55:00,88.0,71.3,30.04,NNW,335,0.0,0.0,58,0.00,BKN,,0.01,418.7,WeatherDisplay:10.37,2013-07-03 16:55:00,
2013-07-03 13:01:00,88.5,70.8,30.04,SSW,195,0.8,4.6,56,0.00,BKN,,0.01,1098.8,WeatherDisplay:10.37,2013-07-03 17:01:00,
2013-07-03 13:07:00,87.6,69.5,30.04,South,176,2.8,6.9,55,0.00,BKN,,0.01,326.0,WeatherDisplay:10.37,2013-07-03 17:07:00,
2013-07-03 13:12:00,86.9,69.3,30.04,SSE,147,2.4,3.5,56,0.00,BKN,,0.01,1175.1,WeatherDisplay:10.37,2013-07-03 17:12:00,
2013-07-03 13:17:00,86.7,70.2,30.04,South,179,0.9,2.3,58,0.00,BKN,,0.01,1153.0,WeatherDisplay:10.37,2013-07-03 17:17:00,
2013-07-03 13:22:00,89.2,73.5,30.04,ENE,77,0.0,0.0,60,0.00,BKN,,0.01,404.8,WeatherDisplay:10.37,2013-07-03 17:22:00,
2013-07-03 13:27:00,89.2,71.0,30.04,NW,323,0.6,3.5,55,0.00,BKN,,0.01,498.8,WeatherDisplay:10.37,2013-07-03 17:27:00,
2013-07-03 13:32:00,89.6,71.8,30.04,SSW,209,0.0,0.0,56,0.00,BKN,,0.01,401.0,WeatherDisplay:10.37,2013-07-03 17:32:00,
2013-07-03 13:38:00,89.1,70.8,30.04,WSW,237,0.0,0.0,55,0.00,BKN,,0.01,1144.3,WeatherDisplay:10.37,2013-07-03 17:38:00,
2013-07-03 13:44:00,89.6,73.4,30.04,NNE,12,0.1,1.1,59,0.00,BKN,,0.01,1206.9,WeatherDisplay:10.37,2013-07-03 17:44:00,
2013-07-03 13:49:00,90.1,71.8,30.04,South,183,0.9,2.3,55,0.00,BKN,,0.01,1036.8,WeatherDisplay:10.37,2013-07-03 17:49:00,
2013-07-03 13:54:00,90.1,72.3,30.03,ESE,118,0.1,1.1,56,0.00,BKN,,0.01,424.1,WeatherDisplay:10.37,2013-07-03 17:54:00,
2013-07-03 13:59:00,90.5,73.2,30.03,NNE,17,0.0,2.3,57,0.00,BKN,,0.01,503.3,WeatherDisplay:10.37,2013-07-03 17:59:00,
2013-07-03 14:04:00,91.0,71.5,30.03,SSW,200,0.0,0.0,53,0.00,BKN,,0.01,396.8,WeatherDisplay:10.37,2013-07-03 18:04:00,
2013-07-03 14:10:00,91.0,71.5,30.03,SSE,149,0.0,0.0,53,0.00,BKN,,0.01,406.1,WeatherDisplay:10.37,2013-07-03 18:10:00,
2013-07-03 14:15:00,90.3,72.5,30.03,SSE,150,0.0,0.0,56,0.00,BKN,,0.01,648.5,WeatherDisplay:10.37,2013-07-03 18:15:00,
2013-07-03 14:20:00,91.0,73.2,30.02,South,181,0.0,0.0,56,0.00,BKN,,0.01,1303.4,WeatherDisplay:10.37,2013-07-03 18:20:00,
2013-07-03 14:26:00,92.5,74.0,30.02,NW,307,0.0,1.1,55,0.00,BKN,,0.01,1082.1,WeatherDisplay:10.37,2013-07-03 18:26:00,
2013-07-03 14:31:00,92.5,73.4,30.02,NNE,17,1.3,9.2,54,0.00,BKN,,0.01,490.4,WeatherDisplay:10.37,2013-07-03 18:31:00,
2013-07-03 14:36:00,92.8,73.7,30.02,NNW,328,2.2,2.9,54,0.00,BKN,,0.01,333.1,WeatherDisplay:10.37,2013-07-03 18:36:00,
2013-07-03 14:41:00,92.1,72.0,30.02,NNW,328,1.1,4.6,52,0.00,BKN,,0.01,228.6,WeatherDisplay:10.37,2013-07-03 18:41:00,
2013-07-03 14:46:00,90.7,72.8,30.02,West,279,0.0,4.6,56,0.00,BKN,,0.01,159.0,WeatherDisplay:10.37,2013-07-03 18:46:00,
2013-07-03 14:52:00,90.0,75.2,30.02,NE,39,0.0,0.0,62,0.00,BKN,,0.01,199.4,WeatherDisplay:10.37,2013-07-03 18:52:00,
2013-07-03 14:57:00,90.1,75.4,30.02,NW,319,0.3,1.1,62,0.00,BKN,,0.01,131.3,WeatherDisplay:10.37,2013-07-03 18:57:00,
2013-07-03 15:02:00,90.3,75.5,30.02,North,8,1.3,4.6,62,0.00,BKN,,0.01,105.6,WeatherDisplay:10.37,2013-07-03 19:02:00,
2013-07-03 15:07:00,88.3,74.1,30.02,NW,321,4.3,6.4,63,0.00,BKN,,0.01,98.9,WeatherDisplay:10.37,2013-07-03 19:07:00,
2013-07-03 15:13:00,84.7,73.9,30.02,North,351,6.7,9.2,70,0.00,BKN,,0.01,79.5,WeatherDisplay:10.37,2013-07-03 19:13:00,
2013-07-03 15:18:00,82.6,73.8,30.02,NW,322,1.5,4.6,75,0.01,RA,BKN,0.02,113.1,WeatherDisplay:10.37,2013-07-03 19:18:00,
2013-07-03 15:24:00,81.9,74.3,30.02,NNW,347,0.0,4.6,78,0.03,RA,BKN,0.04,122.7,WeatherDisplay:10.37,2013-07-03 19:24:00,
2013-07-03 15:29:00,81.3,74.2,30.02,SSE,168,0.3,1.1,79,0.03,RA,BKN,0.04,152.0,WeatherDisplay:10.37,2013-07-03 19:29:00,
2013-07-03 15:34:00,81.3,75.3,30.02,NNE,31,0.2,1.1,82,0.03,BKN,,0.04,178.4,WeatherDisplay:10.37,2013-07-03 19:34:00,
2013-07-03 15:39:00,82.4,76.7,30.02,NNE,18,0.0,0.0,83,0.03,BKN,,0.04,186.0,WeatherDisplay:10.37,2013-07-03 19:39:00,
2013-07-03 15:44:00,82.6,76.2,30.02,NW,314,1.6,3.5,81,0.03,BKN,,0.04,248.7,WeatherDisplay:10.37,2013-07-03 19:44:00,
2013-07-03 15:50:00,82.4,76.7,30.01,NW,323,0.2,2.3,83,0.03,BKN,,0.04,329.5,WeatherDisplay:10.37,2013-07-03 19:50:00,
2013-07-03 15:55:00,83.1,77.4,30.00,NNW,331,0.0,0.0,83,0.03,BKN,,0.04,303.2,WeatherDisplay:10.37,2013-07-03 19:55:00,
2013-07-03 16:00:00,83.5,77.0,30.00,NNW,347,0.0,0.0,81,0.03,BKN,,0.04,170.7,WeatherDisplay:10.37,2013-07-03 20:00:00,
2013-07-03 16:05:00,83.1,76.3,30.00,North,357,0.0,0.0,80,0.03,BKN,,0.04,93.0,WeatherDisplay:10.37,2013-07-03 20:05:00,
2013-07-03 16:10:00,82.8,76.3,30.02,East,87,0.0,0.0,81,0.04,RA,BKN,0.05,66.2,WeatherDisplay:10.37,2013-07-03 20:10:00,
2013-07-03 16:15:00,82.2,75.8,30.02,NW,310,0.1,1.1,81,0.10,RA,BKN,0.13,59.8,WeatherDisplay:10.37,2013-07-03 20:15:00,
2013-07-03 16:20:00,79.2,74.3,30.02,SSW,210,1.4,4.6,85,0.16,RA,BKN,0.21,47.7,WeatherDisplay:10.37,2013-07-03 20:20:00,
2013-07-03 16:26:00,78.8,74.6,30.02,North,5,0.0,1.3,87,0.24,RA,BKN,0.31,39.1,WeatherDisplay:10.37,2013-07-03 20:26:00,
2013-07-03 16:31:00,78.4,74.6,30.02,NW,304,3.8,5.3,88,0.40,RA,BKN,0.45,30.8,WeatherDisplay:10.37,2013-07-03 20:31:00,
2013-07-03 16:37:00,76.8,73.0,30.03,West,277,1.5,3.5,88,0.47,RA,BKN,0.52,38.3,WeatherDisplay:10.37,2013-07-03 20:37:00,
2013-07-03 16:42:00,75.7,72.6,30.04,WNW,286,2.3,4.6,90,0.59,RA,BKN,0.67,43.5,WeatherDisplay:10.37,2013-07-03 20:42:00,
2013-07-03 16:47:00,75.0,71.9,30.03,NE,39,2.1,5.8,90,0.77,RA,BKN,0.82,129.1,WeatherDisplay:10.37,2013-07-03 20:47:00,
2013-07-03 16:53:00,74.1,71.0,30.02,NNE,31,1.0,4.8,90,0.79,RA,BKN,0.83,311.5,WeatherDisplay:10.37,2013-07-03 20:53:00,
2013-07-03 16:58:00,74.7,71.5,30.00,NE,52,2.7,3.5,90,0.80,RA,BKN,0.84,1041.7,WeatherDisplay:10.37,2013-07-03 20:58:00,
2013-07-03 17:04:00,76.3,73.8,30.01,East,87,0.0,0.0,92,0.80,BKN,,0.84,362.9,WeatherDisplay:10.37,2013-07-03 21:04:00,
2013-07-03 17:09:00,77.5,75.0,30.01,East,87,0.0,0.0,92,0.79,BKN,,0.84,821.7,WeatherDisplay:10.37,2013-07-03 21:09:00,
2013-07-03 17:15:00,78.4,75.3,30.02,East,87,0.0,0.0,90,0.75,BKN,,0.84,459.5,WeatherDisplay:10.37,2013-07-03 21:15:00,
2013-07-03 17:20:00,79.0,75.8,30.02,NNW,328,4.1,7.4,90,0.69,BKN,,0.84,221.5,WeatherDisplay:10.37,2013-07-03 21:20:00,
2013-07-03 17:25:00,78.1,72.8,30.02,NNW,327,5.0,8.1,84,0.61,BKN,,0.84,223.5,WeatherDisplay:10.37,2013-07-03 21:25:00,
2013-07-03 17:30:00,78.3,73.7,30.02,NE,47,0.3,4.6,86,0.48,BKN,,0.84,220.2,WeatherDisplay:10.37,2013-07-03 21:30:00,
2013-07-03 17:36:00,77.9,73.0,30.02,NE,36,1.5,5.8,85,0.37,BKN,,0.84,247.6,WeatherDisplay:10.37,2013-07-03 21:36:00,
2013-07-03 17:41:00,77.7,72.8,30.02,NE,41,1.2,4.8,85,0.29,BKN,,0.84,371.2,WeatherDisplay:10.37,2013-07-03 21:41:00,
2013-07-03 17:46:00,78.3,73.0,30.02,North,3,1.6,4.6,84,0.07,BKN,,0.84,202.2,WeatherDisplay:10.37,2013-07-03 21:46:00,
2013-07-03 17:51:00,78.1,72.1,30.02,ENE,57,3.6,9.2,82,0.01,BKN,,0.84,241.5,WeatherDisplay:10.37,2013-07-03 21:51:00,
2013-07-03 17:56:00,78.1,71.8,30.02,NE,54,2.7,5.8,81,0.00,BKN,,0.84,192.8,WeatherDisplay:10.37,2013-07-03 21:56:00,
2013-07-03 18:01:00,77.4,70.3,30.02,NE,39,5.0,8.1,79,0.00,BKN,,0.84,154.5,WeatherDisplay:10.37,2013-07-03 22:01:00,
2013-07-03 18:07:00,77.0,70.4,30.02,NE,35,2.6,4.6,80,0.00,BKN,,0.84,110.9,WeatherDisplay:10.37,2013-07-03 22:07:00,
2013-07-03 18:12:00,76.8,70.9,30.03,NE,38,3.2,6.9,82,0.00,BKN,,0.84,110.6,WeatherDisplay:10.37,2013-07-03 22:12:00,
2013-07-03 18:17:00,76.6,70.4,30.03,NE,34,4.2,6.9,81,0.00,BKN,,0.84,108.4,WeatherDisplay:10.37,2013-07-03 22:17:00,
2013-07-03 18:22:00,75.9,70.0,30.02,NE,47,1.9,4.6,82,0.00,BKN,,0.84,176.9,WeatherDisplay:10.37,2013-07-03 22:22:00,
2013-07-03 18:28:00,76.6,71.4,30.03,NNE,32,2.2,4.6,84,0.00,BKN,,0.84,101.8,WeatherDisplay:10.37,2013-07-03 22:28:00,
2013-07-03 18:35:00,76.5,70.6,30.03,NE,43,3.4,5.8,82,0.00,BKN,,0.84,159.2,WeatherDisplay:10.37,2013-07-03 22:35:00,
2013-07-03 18:41:00,76.8,70.9,30.03,NE,35,3.2,6.9,82,0.00,BKN,,0.84,383.6,WeatherDisplay:10.37,2013-07-03 22:41:00,
2013-07-03 18:46:00,77.2,71.6,30.03,NE,38,4.7,6.9,83,0.00,BKN,,0.84,255.9,WeatherDisplay:10.37,2013-07-03 22:46:00,
2013-07-03 18:51:00,77.5,72.0,30.03,NE,53,1.8,3.5,83,0.00,BKN,,0.84,143.9,WeatherDisplay:10.37,2013-07-03 22:51:00,
2013-07-03 18:56:00,77.9,73.0,30.04,NE,41,0.6,2.3,85,0.01,RA,BKN,0.85,152.0,WeatherDisplay:10.37,2013-07-03 22:56:00,
2013-07-03 19:01:00,77.4,72.1,30.04,ENE,68,0.6,2.3,84,0.07,RA,BKN,0.92,178.1,WeatherDisplay:10.37,2013-07-03 23:01:00,
2013-07-03 19:06:00,77.2,72.7,30.03,NNE,13,1.0,3.2,86,0.09,RA,BKN,0.93,155.2,WeatherDisplay:10.37,2013-07-03 23:06:00,
2013-07-03 19:11:00,76.8,72.3,30.03,SE,137,0.2,1.1,86,0.09,RA,BKN,0.93,74.2,WeatherDisplay:10.37,2013-07-03 23:11:00,
2013-07-03 19:17:00,76.5,72.0,30.04,SE,127,0.0,1.1,86,0.09,BKN,,0.93,31.7,WeatherDisplay:10.37,2013-07-03 23:17:00,
2013-07-03 19:22:00,76.1,71.6,30.04,ENE,66,0.3,1.1,86,0.09,BKN,,0.93,27.7,WeatherDisplay:10.37,2013-07-03 23:22:00,
2013-07-03 19:27:00,75.4,71.2,30.04,SSE,161,0.3,1.1,87,0.09,BKN,,0.93,23.9,WeatherDisplay:10.37,2013-07-03 23:27:00,
2013-07-03 19:33:00,75.4,71.2,30.04,NNE,22,0.0,0.0,87,0.09,BKN,,0.93,28.6,WeatherDisplay:10.37,2013-07-03 23:33:00,
2013-07-03 19:39:00,75.4,71.6,30.04,NE,49,0.0,0.0,88,0.09,BKN,,0.93,23.6,WeatherDisplay:10.37,2013-07-03 23:39:00,
2013-07-03 19:44:00,75.0,71.2,30.04,SE,129,0.0,1.1,88,0.09,BKN,,0.93,19.1,WeatherDisplay:10.37,2013-07-03 23:44:00,
2013-07-03 19:49:00,74.8,71.0,30.05,SSE,168,0.2,1.1,88,0.09,BKN,,0.93,12.0,WeatherDisplay:10.37,2013-07-03 23:49:00,
2013-07-03 19:55:00,74.5,71.4,30.05,South,182,0.0,0.0,90,0.09,BKN,,0.93,15.3,WeatherDisplay:10.37,2013-07-03 23:55:00,
2013-07-03 20:00:00,74.7,71.9,30.05,South,182,0.0,0.0,91,0.09,RA,BKN,0.96,12.4,WeatherDisplay:10.37,2013-07-04 00:00:00,
2013-07-03 20:05:00,74.1,71.0,30.05,East,89,0.0,0.0,90,0.05,RA,BKN,0.98,11.9,WeatherDisplay:10.37,2013-07-04 00:05:00,
2013-07-03 20:10:00,74.5,71.7,30.06,WNW,296,0.3,2.3,91,0.05,RA,BKN,0.98,11.2,WeatherDisplay:10.37,2013-07-04 00:10:00,
2013-07-03 20:15:00,74.3,71.5,30.06,West,275,0.0,0.0,91,0.06,RA,BKN,0.99,10.7,WeatherDisplay:10.37,2013-07-04 00:15:00,
2013-07-03 20:20:00,74.3,71.8,30.06,NW,306,0.0,0.7,92,0.06,RA,BKN,0.99,10.1,WeatherDisplay:10.37,2013-07-04 00:20:00,
2013-07-03 20:25:00,74.3,71.5,30.06,NW,309,0.0,0.0,91,0.06,BKN,,0.99,7.1,WeatherDisplay:10.37,2013-07-04 00:25:00,
2013-07-03 20:31:00,74.5,72.0,30.06,NW,324,0.0,0.0,92,0.06,BKN,,0.99,3.4,WeatherDisplay:10.37,2013-07-04 00:31:00,
2013-07-03 20:36:00,74.3,71.8,30.06,SE,132,1.1,2.3,92,0.06,BKN,,0.99,1.6,WeatherDisplay:10.37,2013-07-04 00:36:00,
2013-07-03 20:41:00,74.1,71.6,30.05,SE,132,0.0,0.0,92,0.06,BKN,,0.99,3.0,WeatherDisplay:10.37,2013-07-04 00:41:00,
2013-07-03 20:46:00,74.1,71.6,30.05,South,179,0.1,1.5,92,0.06,BKN,,0.99,1.9,WeatherDisplay:10.37,2013-07-04 00:46:00,
2013-07-03 20:51:00,73.8,71.3,30.04,South,174,0.1,2.3,92,0.06,BKN,,0.99,0.5,WeatherDisplay:10.37,2013-07-04 00:51:00,
2013-07-03 20:57:00,73.6,71.4,30.05,SE,146,1.1,2.3,93,0.06,BKN,,0.99,0.5,WeatherDisplay:10.37,2013-07-04 00:57:00,
2013-07-03 21:02:00,73.2,71.1,30.04,SE,127,1.2,3.5,93,0.02,BKN,,0.99,0.0,WeatherDisplay:10.37,2013-07-04 01:02:00,
2013-07-03 21:07:00,73.4,71.3,30.04,South,189,0.0,2.3,93,0.01,BKN,,0.99,0.0,WeatherDisplay:10.37,2013-07-04 01:07:00,
2013-07-03 21:12:00,73.6,71.4,30.04,East,93,0.0,0.0,93,0.00,BKN,,0.99,0.0,WeatherDisplay:10.37,2013-07-04 01:12:00,
2013-07-03 21:17:00,73.6,71.4,30.04,SE,125,0.1,0.0,93,0.00,BKN,,0.99,0.0,WeatherDisplay:10.37,2013-07-04 01:17:00,
2013-07-03 21:23:00,73.2,71.1,30.04,SSE,153,1.5,2.3,93,0.00,BKN,,0.99,0.0,WeatherDisplay:10.37,2013-07-04 01:23:00,
2013-07-03 21:28:00,73.0,70.9,30.05,SE,126,0.9,2.3,93,0.00,BKN,,0.99,0.0,WeatherDisplay:10.37,2013-07-04 01:28:00,
2013-07-03 21:33:00,73.0,71.2,30.05,SE,127,1.8,6.9,94,0.00,BKN,,0.99,0.0,WeatherDisplay:10.37,2013-07-04 01:33:00,
2013-07-03 21:38:00,73.0,70.9,30.04,SE,145,0.5,3.1,93,0.00,BKN,,0.99,0.0,WeatherDisplay:10.37,2013-07-04 01:38:00,
2013-07-03 21:43:00,73.0,70.9,30.05,SE,136,1.1,3.5,93,0.00,BKN,,0.99,0.0,WeatherDisplay:10.37,2013-07-04 01:43:00,
2013-07-03 21:49:00,73.0,70.9,30.05,ESE,122,1.5,3.5,93,0.00,BKN,,0.99,0.0,WeatherDisplay:10.37,2013-07-04 01:49:00,
2013-07-03 21:54:00,73.2,71.1,30.04,SE,143,0.2,1.1,93,0.00,BKN,,0.99,0.0,WeatherDisplay:10.37,2013-07-04 01:54:00,
2013-07-03 21:59:00,73.0,70.9,30.05,SSE,150,1.8,3.5,93,0.00,BKN,,0.99,0.0,WeatherDisplay:10.37,2013-07-04 01:59:00,
2013-07-03 22:05:00,73.0,70.9,30.05,SSE,147,1.2,3.5,93,0.00,BKN,,0.99,0.0,WeatherDisplay:10.37,2013-07-04 02:05:00,
2013-07-03 22:10:00,73.0,70.9,30.05,SSE,152,1.4,3.5,93,0.00,BKN,,0.99,0.0,WeatherDisplay:10.37,2013-07-04 02:10:00,
2013-07-03 22:15:00,73.0,70.9,30.05,SE,129,1.0,2.3,93,0.00,BKN,,0.99,0.0,WeatherDisplay:10.37,2013-07-04 02:15:00,
2013-07-03 22:20:00,73.2,71.1,30.05,ESE,117,0.0,1.1,93,0.00,BKN,,0.99,0.0,WeatherDisplay:10.37,2013-07-04 02:20:00,
2013-07-03 22:25:00,73.0,70.9,30.05,South,173,0.3,2.3,93,0.00,BKN,,0.99,0.0,WeatherDisplay:10.37,2013-07-04 02:25:00,
2013-07-03 22:30:00,73.0,70.9,30.06,SE,129,0.0,1.1,93,0.00,BKN,,0.99,0.0,WeatherDisplay:10.37,2013-07-04 02:30:00,
2013-07-03 22:36:00,72.7,70.5,30.05,SSE,148,1.0,3.5,93,0.00,BKN,,0.99,0.0,WeatherDisplay:10.37,2013-07-04 02:36:00,
2013-07-03 22:41:00,72.7,70.5,30.05,South,182,0.9,1.1,93,0.00,BKN,,0.99,0.0,WeatherDisplay:10.37,2013-07-04 02:41:00,
2013-07-03 22:46:00,73.0,70.9,30.05,SE,125,0.4,1.1,93,0.00,BKN,,0.99,0.0,WeatherDisplay:10.37,2013-07-04 02:46:00,
2013-07-03 22:51:00,73.0,70.9,30.04,ESE,117,0.3,1.1,93,0.00,OVC,BKN,0.99,0.0,WeatherDisplay:10.37,2013-07-04 02:51:00,
2013-07-03 22:56:00,73.2,71.4,30.04,SE,145,0.0,0.0,94,0.00,OVC,BKN,0.99,0.0,WeatherDisplay:10.37,2013-07-04 02:56:00,
2013-07-03 23:01:00,73.2,71.1,30.04,ESE,121,0.0,0.0,93,0.00,OVC,BKN,0.99,0.0,WeatherDisplay:10.37,2013-07-04 03:01:00,
2013-07-03 23:06:00,73.2,71.1,30.05,ESE,121,0.0,0.0,93,0.00,OVC,BKN,0.99,0.0,WeatherDisplay:10.37,2013-07-04 03:06:00,
2013-07-03 23:11:00,72.9,70.7,30.06,South,184,0.0,0.0,93,0.00,OVC,BKN,0.99,0.0,WeatherDisplay:10.37,2013-07-04 03:11:00,
2013-07-03 23:17:00,72.3,70.5,30.06,WSW,244,0.2,1.1,94,0.00,OVC,BKN,0.99,0.0,WeatherDisplay:10.37,2013-07-04 03:17:00,
2013-07-03 23:22:00,72.7,70.9,30.05,South,182,0.2,2.3,94,0.00,OVC,BKN,0.99,0.0,WeatherDisplay:10.37,2013-07-04 03:22:00,
2013-07-03 23:27:00,72.7,70.9,30.05,South,169,0.0,0.0,94,0.00,OVC,BKN,0.99,0.0,WeatherDisplay:10.37,2013-07-04 03:27:00,
2013-07-03 23:32:00,72.7,70.9,30.05,South,181,0.0,0.0,94,0.00,-RA,BKN,0.99,0.0,WeatherDisplay:10.37,2013-07-04 03:32:00,
2013-07-03 23:37:00,72.7,70.9,30.05,South,176,0.0,0.0,94,0.00,-RA,BKN,0.99,0.0,WeatherDisplay:10.37,2013-07-04 03:37:00,
2013-07-03 23:42:00,72.7,70.9,30.05,South,172,0.0,0.0,94,0.00,-RA,BKN,0.99,0.0,WeatherDisplay:10.37,2013-07-04 03:42:00,
2013-07-03 23:47:00,72.7,70.9,30.04,SE,143,0.0,0.0,94,0.00,-RA,BKN,0.99,0.0,WeatherDisplay:10.37,2013-07-04 03:47:00,
2013-07-03 23:53:00,72.7,70.9,30.05,ESE,122,0.0,1.1,94,0.00,-RA,BKN,0.99,0.0,WeatherDisplay:10.37,2013-07-04 03:53:00,
2013-07-03 23:58:00,72.7,70.9,30.04,SE,137,0.0,1.1,94,0.00,-RA,BKN,0.99,0.0,WeatherDisplay:10.37,2013-07-04 03:58:00,